createdAt,value
2023-03-23T15:59:57.180Z,3.65
2023-03-23T16:02:26.916Z,3.78
2023-03-23T16:04:55.441Z,3.72
2023-03-23T16:07:25.563Z,3.90
2023-03-23T16:09:53.989Z,4.03
2023-03-23T16:12:23.978Z,3.95
2023-03-23T16:14:53.592Z,3.28
2023-03-23T16:17:22.989Z,3.83
2023-03-23T16:19:51.429Z,4.30
2023-03-23T16:22:19.853Z,4.13
2023-03-23T16:24:48.470Z,3.75
2023-03-23T16:27:17.338Z,3.63
2023-03-23T16:30:02.847Z,4.53
2023-03-23T16:35:00.010Z,4.38
2023-03-23T16:37:33.404Z,4.40
2023-03-23T16:42:30.724Z,3.80
2023-03-23T16:45:00.635Z,4.40
2023-03-23T16:47:29.386Z,4.07
2023-03-23T16:49:57.874Z,4.30
2023-03-23T16:52:26.412Z,4.13
2023-03-23T16:54:54.945Z,4.22
2023-03-23T16:57:23.441Z,4.60
2023-03-23T16:59:52.003Z,4.13
2023-03-23T17:02:22.157Z,4.28
2023-03-23T17:04:50.882Z,4.18
2023-03-23T17:07:21.848Z,4.57
2023-03-23T17:09:53.027Z,4.13
2023-03-23T17:12:21.983Z,4.30
2023-03-23T17:14:50.644Z,4.85
2023-03-23T17:17:19.254Z,4.50
2023-03-23T17:19:49.192Z,4.13
2023-03-23T17:22:29.073Z,4.57
2023-03-23T17:24:58.936Z,4.15
2023-03-23T17:27:27.960Z,4.65
2023-03-23T17:29:56.666Z,4.50
2023-03-23T17:32:29.776Z,5.13
2023-03-23T17:35:02.271Z,4.45
2023-03-23T17:37:31.482Z,5.18
2023-03-23T17:40:00.116Z,4.63
2023-03-23T17:42:29.024Z,4.88
2023-03-23T17:44:57.916Z,5.25
2023-03-23T17:47:28.836Z,5.20
2023-03-23T17:49:57.907Z,4.88
2023-03-23T17:52:27.844Z,5.25
2023-03-23T17:54:56.290Z,5.13
2023-03-23T17:57:24.805Z,5.25
2023-03-23T17:59:53.273Z,4.65
2023-03-23T18:02:21.782Z,4.82
2023-03-23T18:04:50.360Z,5.35
2023-03-23T18:07:23.566Z,5.03
2023-03-23T18:09:53.457Z,5.68
2023-03-23T18:12:21.919Z,5.47
2023-03-23T18:14:50.496Z,5.35
2023-03-23T18:17:18.931Z,5.30
2023-03-23T18:19:51.170Z,5.45
2023-03-23T18:22:21.372Z,5.65
2023-03-23T18:24:55.080Z,5.47
2023-03-23T18:27:23.862Z,5.65
2023-03-23T18:29:53.040Z,5.45
2023-03-23T18:32:21.694Z,5.53
2023-03-23T18:34:51.538Z,5.75
2023-03-23T18:37:26.698Z,5.75
2023-03-23T18:39:56.941Z,5.28
2023-03-23T18:42:26.908Z,5.47
2023-03-23T18:44:55.708Z,5.07
2023-03-23T18:47:24.401Z,5.20
2023-03-23T18:49:55.333Z,5.53
2023-03-23T18:52:26.204Z,5.50
2023-03-23T18:54:54.957Z,5.22
2023-03-23T18:57:25.077Z,5.63
2023-03-23T18:59:53.584Z,5.47
2023-03-23T19:02:22.413Z,4.95
2023-03-23T19:04:51.717Z,5.43
2023-03-23T19:07:21.682Z,5.43
2023-03-23T19:09:50.156Z,4.88
2023-03-23T19:12:18.623Z,5.05
2023-03-23T19:14:48.415Z,5.82
2023-03-23T19:17:18.034Z,5.10
2023-03-23T19:19:46.652Z,5.15
2023-03-23T19:22:15.286Z,5.57
2023-03-23T19:24:46.875Z,5.10
2023-03-23T19:27:16.600Z,5.25
2023-03-23T19:29:46.160Z,5.13
2023-03-23T19:32:17.179Z,5.03
2023-03-23T19:34:50.781Z,5.10
2023-03-23T19:37:20.054Z,6.07
2023-03-23T19:39:48.490Z,5.13
2023-03-23T19:42:18.615Z,5.53
2023-03-23T19:44:51.140Z,13.93
2023-03-23T19:47:21.303Z,4.60
2023-03-23T19:49:50.855Z,4.40
2023-03-23T19:52:20.292Z,4.78
2023-03-23T19:54:53.235Z,4.72
2023-03-23T19:57:22.464Z,5.10
2023-03-23T19:59:52.021Z,4.35
2023-03-23T20:02:22.161Z,5.13
2023-03-23T20:04:55.638Z,5.00
2023-03-23T20:07:26.890Z,4.18
2023-03-23T20:10:06.184Z,4.82
2023-03-23T20:12:35.467Z,4.88
2023-03-23T20:15:05.195Z,4.18
2023-03-23T20:17:35.517Z,4.53
2023-03-23T20:20:10.142Z,4.63
2023-03-23T20:22:42.706Z,4.13
2023-03-23T20:25:12.197Z,4.40
2023-03-23T20:27:45.432Z,4.70
2023-03-23T20:30:14.485Z,4.35
2023-03-23T20:32:46.453Z,4.38
2023-03-23T20:35:19.014Z,4.85
2023-03-23T20:37:50.710Z,4.38
2023-03-23T20:40:20.672Z,4.88
2023-03-23T20:42:49.861Z,4.57
2023-03-23T20:45:18.613Z,5.05
2023-03-23T20:47:51.166Z,5.20
2023-03-23T20:50:20.391Z,4.63
2023-03-23T20:52:48.920Z,5.05
2023-03-23T20:55:18.192Z,5.82
2023-03-23T20:57:46.638Z,5.18
2023-03-23T21:00:18.073Z,5.43
2023-03-23T21:02:49.839Z,5.65
2023-03-23T21:05:18.328Z,5.22
2023-03-23T21:07:46.862Z,5.00
2023-03-23T21:10:15.276Z,5.70
2023-03-23T21:12:43.824Z,5.68
2023-03-23T21:15:13.071Z,4.70
2023-03-23T21:17:41.579Z,5.30
2023-03-23T21:20:12.572Z,5.40
2023-03-23T21:22:41.484Z,5.63
2023-03-23T21:25:10.231Z,5.82
2023-03-23T21:27:39.128Z,5.40
2023-03-23T21:30:09.987Z,5.90
2023-03-23T21:32:38.531Z,5.63
2023-03-23T21:35:07.272Z,5.25
2023-03-23T21:37:37.417Z,6.50
2023-03-23T21:40:13.058Z,6.70
2023-03-23T21:42:42.240Z,6.55
2023-03-23T21:45:13.150Z,6.03
2023-03-23T21:47:43.485Z,6.53
2023-03-23T21:50:14.074Z,6.20
2023-03-23T21:52:44.484Z,6.63
2023-03-23T21:55:14.402Z,6.75
2023-03-23T21:57:43.682Z,6.75
2023-03-23T22:00:15.194Z,6.10
2023-03-23T22:02:43.975Z,6.18
2023-03-23T22:05:12.672Z,6.22
2023-03-23T22:07:42.334Z,6.80
2023-03-23T22:10:12.619Z,6.65
2023-03-23T22:12:41.895Z,6.40
2023-03-23T22:15:15.239Z,7.10
2023-03-23T22:17:43.877Z,6.85
2023-03-23T22:20:15.545Z,7.13
2023-03-23T22:22:44.132Z,7.28
2023-03-23T22:25:14.427Z,7.32
2023-03-23T22:27:43.039Z,7.28
2023-03-23T22:30:12.815Z,7.63
2023-03-23T22:32:41.495Z,7.90
2023-03-23T22:35:12.674Z,7.47
2023-03-23T22:37:41.356Z,7.60
2023-03-23T22:40:11.518Z,7.88
2023-03-23T22:42:42.595Z,7.78
2023-03-23T22:45:11.385Z,8.15
2023-03-23T22:47:40.400Z,7.88
2023-03-23T22:50:11.373Z,8.80
2023-03-23T22:52:39.885Z,8.57
2023-03-23T22:55:09.817Z,8.85
2023-03-23T22:57:38.299Z,8.02
2023-03-23T23:00:14.970Z,8.32
2023-03-23T23:02:44.187Z,8.68
2023-03-23T23:05:13.871Z,8.52
2023-03-23T23:07:42.817Z,8.00
2023-03-23T23:10:11.631Z,8.30
2023-03-23T23:12:42.500Z,7.93
2023-03-23T23:15:14.618Z,8.57
2023-03-23T23:17:43.602Z,8.77
2023-03-23T23:20:14.321Z,8.52
2023-03-23T23:22:44.530Z,8.20
2023-03-23T23:25:13.719Z,8.98
2023-03-23T23:27:42.359Z,9.05
2023-03-23T23:30:13.667Z,8.77
2023-03-23T23:32:42.982Z,8.75
2023-03-23T23:35:13.042Z,9.25
2023-03-23T23:37:41.742Z,8.80
2023-03-23T23:40:11.191Z,8.95
2023-03-23T23:42:39.746Z,9.02
2023-03-23T23:45:10.399Z,8.63
2023-03-23T23:47:41.912Z,8.25
2023-03-23T23:50:12.008Z,8.68
2023-03-23T23:52:42.712Z,8.88
2023-03-23T23:55:12.885Z,9.70
2023-03-23T23:57:41.448Z,8.90
